sensor_id;sensor_type;location;lat;lon;timestamp;temperature;humidity
7445;DHT22;3764;48.126;11.594;2023-07-20T00:01:52;23.50;98.00
7445;DHT22;3764;48.126;11.594;2023-07-20T00:04:19;23.50;97.80
7445;DHT22;3764;48.126;11.594;2023-07-20T00:06:46;23.40;97.70
7445;DHT22;3764;48.126;11.594;2023-07-20T00:09:13;23.50;97.90
7445;DHT22;3764;48.126;11.594;2023-07-20T00:11:48;23.40;98.40
7445;DHT22;3764;48.126;11.594;2023-07-20T00:14:16;23.40;98.30
7445;DHT22;3764;48.126;11.594;2023-07-20T00:16:44;23.40;97.90
7445;DHT22;3764;48.126;11.594;2023-07-20T00:19:12;23.40;98.60
7445;DHT22;3764;48.126;11.594;2023-07-20T00:21:39;23.40;98.80
7445;DHT22;3764;48.126;11.594;2023-07-20T00:24:08;23.40;98.50
7445;DHT22;3764;48.126;11.594;2023-07-20T00:26:35;23.40;98.80
7445;DHT22;3764;48.126;11.594;2023-07-20T00:29:04;23.30;98.50
7445;DHT22;3764;48.126;11.594;2023-07-20T00:31:31;23.30;98.00
7445;DHT22;3764;48.126;11.594;2023-07-20T00:33:58;23.30;98.50
7445;DHT22;3764;48.126;11.594;2023-07-20T00:36:25;23.30;98.00
7445;DHT22;3764;48.126;11.594;2023-07-20T00:38:52;23.30;98.30
7445;DHT22;3764;48.126;11.594;2023-07-20T00:41:19;23.30;98.50
7445;DHT22;3764;48.126;11.594;2023-07-20T00:43:46;23.20;98.20
7445;DHT22;3764;48.126;11.594;2023-07-20T00:46:15;23.20;98.80
7445;DHT22;3764;48.126;11.594;2023-07-20T00:48:42;23.20;98.20
7445;DHT22;3764;48.126;11.594;2023-07-20T00:51:10;23.20;98.90
7445;DHT22;3764;48.126;11.594;2023-07-20T00:53:38;23.20;98.70
7445;DHT22;3764;48.126;11.594;2023-07-20T00:56:05;23.20;99.00
7445;DHT22;3764;48.126;11.594;2023-07-20T00:58:34;23.20;98.40
7445;DHT22;3764;48.126;11.594;2023-07-20T01:01:01;23.20;98.70
7445;DHT22;3764;48.126;11.594;2023-07-20T01:03:30;23.20;99.00
7445;DHT22;3764;48.126;11.594;2023-07-20T01:06:04;23.10;98.90
7445;DHT22;3764;48.126;11.594;2023-07-20T01:08:40;23.20;98.80
7445;DHT22;3764;48.126;11.594;2023-07-20T01:11:15;23.20;99.10
7445;DHT22;3764;48.126;11.594;2023-07-20T01:13:44;23.10;98.60
7445;DHT22;3764;48.126;11.594;2023-07-20T01:16:11;23.10;98.90
7445;DHT22;3764;48.126;11.594;2023-07-20T01:18:39;23.10;98.70
7445;DHT22;3764;48.126;11.594;2023-07-20T01:21:12;23.10;99.20
7445;DHT22;3764;48.126;11.594;2023-07-20T01:27:23;23.10;99.40
7445;DHT22;3764;48.126;11.594;2023-07-20T01:30:14;23.10;99.50
7445;DHT22;3764;48.126;11.594;2023-07-20T01:32:44;23.10;99.20
7445;DHT22;3764;48.126;11.594;2023-07-20T01:35:14;23.00;99.20
7445;DHT22;3764;48.126;11.594;2023-07-20T01:37:44;22.90;99.10
7445;DHT22;3764;48.126;11.594;2023-07-20T01:40:14;22.80;99.40
7445;DHT22;3764;48.126;11.594;2023-07-20T01:42:44;22.80;99.40
7445;DHT22;3764;48.126;11.594;2023-07-20T01:45:12;22.70;99.70
7445;DHT22;3764;48.126;11.594;2023-07-20T01:47:39;22.70;99.90
7445;DHT22;3764;48.126;11.594;2023-07-20T01:50:08;22.70;99.90
7445;DHT22;3764;48.126;11.594;2023-07-20T01:52:36;22.80;99.90
7445;DHT22;3764;48.126;11.594;2023-07-20T01:55:06;22.90;99.90
7445;DHT22;3764;48.126;11.594;2023-07-20T01:57:33;22.90;99.70
7445;DHT22;3764;48.126;11.594;2023-07-20T02:00:01;22.90;99.20
7445;DHT22;3764;48.126;11.594;2023-07-20T02:02:28;22.80;99.70
7445;DHT22;3764;48.126;11.594;2023-07-20T02:04:55;22.70;99.90
7445;DHT22;3764;48.126;11.594;2023-07-20T02:07:24;22.80;99.90
7445;DHT22;3764;48.126;11.594;2023-07-20T02:09:51;22.80;99.90
7445;DHT22;3764;48.126;11.594;2023-07-20T02:12:18;22.80;99.90
7445;DHT22;3764;48.126;11.594;2023-07-20T02:14:45;22.80;99.80
7445;DHT22;3764;48.126;11.594;2023-07-20T02:17:13;22.80;99.40
7445;DHT22;3764;48.126;11.594;2023-07-20T02:19:41;22.70;99.70
7445;DHT22;3764;48.126;11.594;2023-07-20T02:22:08;22.60;99.40
7445;DHT22;3764;48.126;11.594;2023-07-20T02:24:36;22.60;99.80
7445;DHT22;3764;48.126;11.594;2023-07-20T02:27:04;22.50;99.70
7445;DHT22;3764;48.126;11.594;2023-07-20T02:29:32;22.50;99.80
7445;DHT22;3764;48.126;11.594;2023-07-20T02:31:59;22.50;99.90
7445;DHT22;3764;48.126;11.594;2023-07-20T02:34:28;22.50;99.80
7445;DHT22;3764;48.126;11.594;2023-07-20T02:36:55;22.50;99.70
7445;DHT22;3764;48.126;11.594;2023-07-20T02:39:24;22.50;99.60
7445;DHT22;3764;48.126;11.594;2023-07-20T02:41:52;22.40;99.90
7445;DHT22;3764;48.126;11.594;2023-07-20T02:44:19;22.40;99.90
7445;DHT22;3764;48.126;11.594;2023-07-20T02:46:46;22.50;99.90
7445;DHT22;3764;48.126;11.594;2023-07-20T02:49:15;22.50;99.90
7445;DHT22;3764;48.126;11.594;2023-07-20T02:51:42;22.50;99.90
7445;DHT22;3764;48.126;11.594;2023-07-20T02:54:10;22.50;99.70
7445;DHT22;3764;48.126;11.594;2023-07-20T02:56:37;22.50;99.30
7445;DHT22;3764;48.126;11.594;2023-07-20T02:59:05;22.50;99.90
7445;DHT22;3764;48.126;11.594;2023-07-20T03:01:32;22.40;99.20
7445;DHT22;3764;48.126;11.594;2023-07-20T03:03:59;22.40;99.90
7445;DHT22;3764;48.126;11.594;2023-07-20T03:06:26;22.40;99.90
7445;DHT22;3764;48.126;11.594;2023-07-20T03:08:53;22.40;99.90
7445;DHT22;3764;48.126;11.594;2023-07-20T03:11:21;22.40;99.90
7445;DHT22;3764;48.126;11.594;2023-07-20T03:13:48;22.30;99.90
7445;DHT22;3764;48.126;11.594;2023-07-20T03:16:18;22.30;99.90
7445;DHT22;3764;48.126;11.594;2023-07-20T03:18:45;22.30;99.90
7445;DHT22;3764;48.126;11.594;2023-07-20T03:21:13;22.20;99.90
7445;DHT22;3764;48.126;11.594;2023-07-20T03:23:41;22.10;99.90
7445;DHT22;3764;48.126;11.594;2023-07-20T03:26:08;22.00;99.90
7445;DHT22;3764;48.126;11.594;2023-07-20T03:28:35;21.90;99.90
7445;DHT22;3764;48.126;11.594;2023-07-20T03:31:03;21.80;99.90
7445;DHT22;3764;48.126;11.594;2023-07-20T03:33:32;21.70;99.90
7445;DHT22;3764;48.126;11.594;2023-07-20T03:35:59;21.80;99.90
7445;DHT22;3764;48.126;11.594;2023-07-20T03:38:27;21.80;99.90
7445;DHT22;3764;48.126;11.594;2023-07-20T03:40:55;21.80;99.90
7445;DHT22;3764;48.126;11.594;2023-07-20T03:43:23;21.80;99.90
7445;DHT22;3764;48.126;11.594;2023-07-20T03:45:51;21.70;99.90
7445;DHT22;3764;48.126;11.594;2023-07-20T03:48:20;21.60;99.90
7445;DHT22;3764;48.126;11.594;2023-07-20T03:50:50;21.50;99.90
7445;DHT22;3764;48.126;11.594;2023-07-20T03:53:18;21.40;99.90
7445;DHT22;3764;48.126;11.594;2023-07-20T03:55:45;21.30;99.90
7445;DHT22;3764;48.126;11.594;2023-07-20T03:58:13;21.10;99.90
7445;DHT22;3764;48.126;11.594;2023-07-20T04:00:40;20.90;99.90
7445;DHT22;3764;48.126;11.594;2023-07-20T04:03:10;20.70;99.90
7445;DHT22;3764;48.126;11.594;2023-07-20T04:05:37;20.60;99.90
7445;DHT22;3764;48.126;11.594;2023-07-20T04:08:05;20.50;99.90
7445;DHT22;3764;48.126;11.594;2023-07-20T04:10:33;20.30;99.90
7445;DHT22;3764;48.126;11.594;2023-07-20T04:13:00;20.20;99.90
7445;DHT22;3764;48.126;11.594;2023-07-20T04:15:27;20.10;99.90
7445;DHT22;3764;48.126;11.594;2023-07-20T04:17:55;20.00;99.90
7445;DHT22;3764;48.126;11.594;2023-07-20T04:20:22;20.00;99.90
7445;DHT22;3764;48.126;11.594;2023-07-20T04:22:49;20.00;99.90
7445;DHT22;3764;48.126;11.594;2023-07-20T04:25:18;20.10;99.90
7445;DHT22;3764;48.126;11.594;2023-07-20T04:27:45;20.10;99.90
7445;DHT22;3764;48.126;11.594;2023-07-20T04:30:13;20.10;99.90
7445;DHT22;3764;48.126;11.594;2023-07-20T04:32:41;20.10;99.90
7445;DHT22;3764;48.126;11.594;2023-07-20T04:35:09;20.10;99.90
7445;DHT22;3764;48.126;11.594;2023-07-20T04:37:36;20.00;99.90
7445;DHT22;3764;48.126;11.594;2023-07-20T04:40:05;20.00;99.90
7445;DHT22;3764;48.126;11.594;2023-07-20T04:42:34;20.00;99.90
7445;DHT22;3764;48.126;11.594;2023-07-20T04:45:02;20.00;99.90
7445;DHT22;3764;48.126;11.594;2023-07-20T04:47:29;20.00;99.90
7445;DHT22;3764;48.126;11.594;2023-07-20T04:49:56;20.00;99.90
7445;DHT22;3764;48.126;11.594;2023-07-20T04:52:23;20.00;99.90
7445;DHT22;3764;48.126;11.594;2023-07-20T04:54:50;20.00;99.90
7445;DHT22;3764;48.126;11.594;2023-07-20T04:57:17;20.10;99.90
7445;DHT22;3764;48.126;11.594;2023-07-20T04:59:45;20.10;99.90
7445;DHT22;3764;48.126;11.594;2023-07-20T05:02:12;20.20;99.90
7445;DHT22;3764;48.126;11.594;2023-07-20T05:04:39;20.20;99.90
7445;DHT22;3764;48.126;11.594;2023-07-20T05:07:07;20.30;99.90
7445;DHT22;3764;48.126;11.594;2023-07-20T05:09:34;20.40;99.90
7445;DHT22;3764;48.126;11.594;2023-07-20T05:12:01;20.40;99.90
7445;DHT22;3764;48.126;11.594;2023-07-20T05:14:28;20.40;99.90
7445;DHT22;3764;48.126;11.594;2023-07-20T05:16:57;20.40;99.90
7445;DHT22;3764;48.126;11.594;2023-07-20T05:19:25;20.40;99.90
7445;DHT22;3764;48.126;11.594;2023-07-20T05:21:52;20.40;99.90
7445;DHT22;3764;48.126;11.594;2023-07-20T05:24:19;20.40;99.90
7445;DHT22;3764;48.126;11.594;2023-07-20T05:26:47;20.40;99.90
7445;DHT22;3764;48.126;11.594;2023-07-20T05:29:14;20.40;99.90
7445;DHT22;3764;48.126;11.594;2023-07-20T05:31:41;20.30;99.90
7445;DHT22;3764;48.126;11.594;2023-07-20T05:34:10;20.40;99.90
7445;DHT22;3764;48.126;11.594;2023-07-20T05:39:38;20.30;99.90
7445;DHT22;3764;48.126;11.594;2023-07-20T05:42:05;20.30;99.90
7445;DHT22;3764;48.126;11.594;2023-07-20T05:44:32;20.30;99.90
7445;DHT22;3764;48.126;11.594;2023-07-20T05:47:00;20.40;99.90
7445;DHT22;3764;48.126;11.594;2023-07-20T05:49:29;20.40;99.90
7445;DHT22;3764;48.126;11.594;2023-07-20T05:51:56;20.40;99.90
7445;DHT22;3764;48.126;11.594;2023-07-20T05:54:24;20.40;99.90
7445;DHT22;3764;48.126;11.594;2023-07-20T05:56:52;20.40;99.90
7445;DHT22;3764;48.126;11.594;2023-07-20T05:59:19;20.40;99.90
7445;DHT22;3764;48.126;11.594;2023-07-20T06:01:47;20.40;99.90
7445;DHT22;3764;48.126;11.594;2023-07-20T06:04:14;20.40;99.90
7445;DHT22;3764;48.126;11.594;2023-07-20T06:06:43;20.40;99.90
7445;DHT22;3764;48.126;11.594;2023-07-20T06:09:10;20.40;99.90
7445;DHT22;3764;48.126;11.594;2023-07-20T06:11:37;20.40;99.90
7445;DHT22;3764;48.126;11.594;2023-07-20T06:14:05;20.40;99.90
7445;DHT22;3764;48.126;11.594;2023-07-20T06:16:32;20.40;99.90
7445;DHT22;3764;48.126;11.594;2023-07-20T06:19:00;20.40;99.90
7445;DHT22;3764;48.126;11.594;2023-07-20T06:21:27;20.40;99.90
7445;DHT22;3764;48.126;11.594;2023-07-20T06:23:55;20.40;99.90
7445;DHT22;3764;48.126;11.594;2023-07-20T06:26:22;20.40;99.90
7445;DHT22;3764;48.126;11.594;2023-07-20T06:28:49;20.40;99.90
7445;DHT22;3764;48.126;11.594;2023-07-20T06:31:17;20.40;99.70
7445;DHT22;3764;48.126;11.594;2023-07-20T06:33:44;20.50;99.70
7445;DHT22;3764;48.126;11.594;2023-07-20T06:36:11;20.50;99.60
7445;DHT22;3764;48.126;11.594;2023-07-20T06:38:38;20.50;99.80
7445;DHT22;3764;48.126;11.594;2023-07-20T06:41:07;20.50;99.90
7445;DHT22;3764;48.126;11.594;2023-07-20T06:43:34;20.60;99.90
7445;DHT22;3764;48.126;11.594;2023-07-20T06:46:01;20.60;99.60
7445;DHT22;3764;48.126;11.594;2023-07-20T06:48:28;20.60;99.40
7445;DHT22;3764;48.126;11.594;2023-07-20T06:50:55;20.50;99.40
7445;DHT22;3764;48.126;11.594;2023-07-20T06:53:22;20.50;99.60
7445;DHT22;3764;48.126;11.594;2023-07-20T06:55:49;20.50;99.80
7445;DHT22;3764;48.126;11.594;2023-07-20T06:58:18;20.50;99.90
7445;DHT22;3764;48.126;11.594;2023-07-20T07:00:47;20.40;99.90
7445;DHT22;3764;48.126;11.594;2023-07-20T07:03:14;20.50;99.90
7445;DHT22;3764;48.126;11.594;2023-07-20T07:05:41;20.40;99.90
7445;DHT22;3764;48.126;11.594;2023-07-20T07:08:08;20.40;99.90
7445;DHT22;3764;48.126;11.594;2023-07-20T07:10:35;20.50;99.90
7445;DHT22;3764;48.126;11.594;2023-07-20T07:13:03;20.50;99.90
7445;DHT22;3764;48.126;11.594;2023-07-20T07:15:31;20.50;99.90
7445;DHT22;3764;48.126;11.594;2023-07-20T07:17:58;20.50;99.90
7445;DHT22;3764;48.126;11.594;2023-07-20T07:20:26;20.60;99.90
7445;DHT22;3764;48.126;11.594;2023-07-20T07:22:53;20.50;99.90
7445;DHT22;3764;48.126;11.594;2023-07-20T07:25:21;20.60;99.90
7445;DHT22;3764;48.126;11.594;2023-07-20T07:27:48;20.50;99.90
7445;DHT22;3764;48.126;11.594;2023-07-20T07:30:15;20.50;99.70
7445;DHT22;3764;48.126;11.594;2023-07-20T07:32:44;20.50;99.90
7445;DHT22;3764;48.126;11.594;2023-07-20T07:35:11;20.50;99.90
7445;DHT22;3764;48.126;11.594;2023-07-20T07:37:38;20.60;99.90
7445;DHT22;3764;48.126;11.594;2023-07-20T07:40:07;20.70;99.70
7445;DHT22;3764;48.126;11.594;2023-07-20T07:42:34;20.70;99.60
7445;DHT22;3764;48.126;11.594;2023-07-20T07:45:02;20.70;98.80
7445;DHT22;3764;48.126;11.594;2023-07-20T07:47:29;20.70;98.50
7445;DHT22;3764;48.126;11.594;2023-07-20T07:49:58;20.80;98.50
7445;DHT22;3764;48.126;11.594;2023-07-20T07:52:25;20.80;98.10
7445;DHT22;3764;48.126;11.594;2023-07-20T07:54:52;20.70;98.10
7445;DHT22;3764;48.126;11.594;2023-07-20T07:57:19;20.70;97.90
7445;DHT22;3764;48.126;11.594;2023-07-20T07:59:46;20.70;98.10
7445;DHT22;3764;48.126;11.594;2023-07-20T08:02:13;20.80;98.30
7445;DHT22;3764;48.126;11.594;2023-07-20T08:04:41;20.80;98.20
7445;DHT22;3764;48.126;11.594;2023-07-20T08:07:09;20.80;98.10
7445;DHT22;3764;48.126;11.594;2023-07-20T08:09:36;20.80;98.20
7445;DHT22;3764;48.126;11.594;2023-07-20T08:12:05;20.80;98.00
7445;DHT22;3764;48.126;11.594;2023-07-20T08:14:32;20.80;98.20
7445;DHT22;3764;48.126;11.594;2023-07-20T08:16:59;20.90;98.60
7445;DHT22;3764;48.126;11.594;2023-07-20T08:19:26;20.70;98.20
7445;DHT22;3764;48.126;11.594;2023-07-20T08:21:53;20.70;98.60
7445;DHT22;3764;48.126;11.594;2023-07-20T08:24:22;20.70;98.90
7445;DHT22;3764;48.126;11.594;2023-07-20T08:26:49;20.70;98.50
7445;DHT22;3764;48.126;11.594;2023-07-20T08:29:16;20.70;98.60
7445;DHT22;3764;48.126;11.594;2023-07-20T08:31:43;20.80;98.50
7445;DHT22;3764;48.126;11.594;2023-07-20T08:34:11;20.80;98.50
7445;DHT22;3764;48.126;11.594;2023-07-20T08:36:38;20.80;98.30
7445;DHT22;3764;48.126;11.594;2023-07-20T08:39:05;20.90;98.30
7445;DHT22;3764;48.126;11.594;2023-07-20T08:41:35;20.90;98.70
7445;DHT22;3764;48.126;11.594;2023-07-20T08:44:03;20.80;98.60
7445;DHT22;3764;48.126;11.594;2023-07-20T08:46:31;20.90;99.00
7445;DHT22;3764;48.126;11.594;2023-07-20T08:48:58;20.90;98.80
7445;DHT22;3764;48.126;11.594;2023-07-20T08:51:29;20.90;99.60
7445;DHT22;3764;48.126;11.594;2023-07-20T08:53:56;20.90;99.90
7445;DHT22;3764;48.126;11.594;2023-07-20T08:56:24;21.00;99.40
7445;DHT22;3764;48.126;11.594;2023-07-20T08:58:53;21.00;99.50
7445;DHT22;3764;48.126;11.594;2023-07-20T09:01:21;21.10;99.40
7445;DHT22;3764;48.126;11.594;2023-07-20T09:03:49;21.10;99.60
7445;DHT22;3764;48.126;11.594;2023-07-20T09:06:16;21.10;99.10
7445;DHT22;3764;48.126;11.594;2023-07-20T09:08:44;21.10;99.10
7445;DHT22;3764;48.126;11.594;2023-07-20T09:11:11;21.10;99.40
7445;DHT22;3764;48.126;11.594;2023-07-20T09:13:39;21.20;99.50
7445;DHT22;3764;48.126;11.594;2023-07-20T09:16:07;21.20;99.00
7445;DHT22;3764;48.126;11.594;2023-07-20T09:18:35;21.20;99.40
7445;DHT22;3764;48.126;11.594;2023-07-20T09:21:04;21.20;99.20
7445;DHT22;3764;48.126;11.594;2023-07-20T09:23:32;21.30;99.50
7445;DHT22;3764;48.126;11.594;2023-07-20T09:26:00;21.30;99.20
7445;DHT22;3764;48.126;11.594;2023-07-20T09:28:27;21.40;98.80
7445;DHT22;3764;48.126;11.594;2023-07-20T09:30:55;21.40;99.10
7445;DHT22;3764;48.126;11.594;2023-07-20T09:33:25;21.50;97.50
7445;DHT22;3764;48.126;11.594;2023-07-20T09:35:52;21.50;97.20
7445;DHT22;3764;48.126;11.594;2023-07-20T09:38:19;21.60;97.50
7445;DHT22;3764;48.126;11.594;2023-07-20T09:40:50;21.60;97.10
7445;DHT22;3764;48.126;11.594;2023-07-20T09:43:17;21.60;97.20
7445;DHT22;3764;48.126;11.594;2023-07-20T09:45:45;21.60;96.60
7445;DHT22;3764;48.126;11.594;2023-07-20T09:48:13;21.60;97.20
7445;DHT22;3764;48.126;11.594;2023-07-20T09:50:42;21.70;97.80
7445;DHT22;3764;48.126;11.594;2023-07-20T09:53:12;21.60;98.00
7445;DHT22;3764;48.126;11.594;2023-07-20T09:55:40;21.60;98.00
7445;DHT22;3764;48.126;11.594;2023-07-20T09:58:09;21.60;98.30
7445;DHT22;3764;48.126;11.594;2023-07-20T10:00:37;21.60;98.80
7445;DHT22;3764;48.126;11.594;2023-07-20T10:03:05;21.60;98.10
7445;DHT22;3764;48.126;11.594;2023-07-20T10:05:34;21.60;97.80
7445;DHT22;3764;48.126;11.594;2023-07-20T10:08:04;21.60;97.20
7445;DHT22;3764;48.126;11.594;2023-07-20T10:10:33;21.70;97.50
7445;DHT22;3764;48.126;11.594;2023-07-20T10:13:01;21.70;97.80
7445;DHT22;3764;48.126;11.594;2023-07-20T10:15:33;21.70;97.70
7445;DHT22;3764;48.126;11.594;2023-07-20T10:18:06;21.80;98.30
7445;DHT22;3764;48.126;11.594;2023-07-20T10:20:36;21.70;97.60
7445;DHT22;3764;48.126;11.594;2023-07-20T10:23:08;21.70;97.40
7445;DHT22;3764;48.126;11.594;2023-07-20T10:25:35;21.80;98.00
7445;DHT22;3764;48.126;11.594;2023-07-20T10:28:04;21.70;97.60
7445;DHT22;3764;48.126;11.594;2023-07-20T10:30:33;21.70;97.90
7445;DHT22;3764;48.126;11.594;2023-07-20T10:33:01;21.70;98.10
7445;DHT22;3764;48.126;11.594;2023-07-20T10:35:29;21.70;97.70
7445;DHT22;3764;48.126;11.594;2023-07-20T10:38:00;21.70;97.40
7445;DHT22;3764;48.126;11.594;2023-07-20T10:40:33;21.70;98.00
7445;DHT22;3764;48.126;11.594;2023-07-20T10:43:03;21.70;98.10
7445;DHT22;3764;48.126;11.594;2023-07-20T10:45:35;21.70;98.10
7445;DHT22;3764;48.126;11.594;2023-07-20T10:48:05;21.70;97.50
7445;DHT22;3764;48.126;11.594;2023-07-20T10:50:32;21.80;97.40
7445;DHT22;3764;48.126;11.594;2023-07-20T10:53:11;21.80;97.60
7445;DHT22;3764;48.126;11.594;2023-07-20T10:55:40;21.90;97.60
7445;DHT22;3764;48.126;11.594;2023-07-20T10:58:12;22.00;97.70
7445;DHT22;3764;48.126;11.594;2023-07-20T11:00:57;22.00;98.30
7445;DHT22;3764;48.126;11.594;2023-07-20T11:03:32;22.00;98.20
7445;DHT22;3764;48.126;11.594;2023-07-20T11:06:00;22.00;98.40
7445;DHT22;3764;48.126;11.594;2023-07-20T11:08:47;22.00;97.90
7445;DHT22;3764;48.126;11.594;2023-07-20T11:11:26;22.00;98.00
7445;DHT22;3764;48.126;11.594;2023-07-20T11:13:54;22.00;98.20
7445;DHT22;3764;48.126;11.594;2023-07-20T11:16:36;22.00;98.10
7445;DHT22;3764;48.126;11.594;2023-07-20T11:19:04;22.00;97.50
7445;DHT22;3764;48.126;11.594;2023-07-20T11:21:36;22.00;98.10
7445;DHT22;3764;48.126;11.594;2023-07-20T11:24:07;22.00;97.70
7445;DHT22;3764;48.126;11.594;2023-07-20T11:26:45;22.10;97.90
7445;DHT22;3764;48.126;11.594;2023-07-20T11:29:12;22.10;97.50
7445;DHT22;3764;48.126;11.594;2023-07-20T11:31:40;22.20;97.30
7445;DHT22;3764;48.126;11.594;2023-07-20T11:34:11;22.20;97.10
7445;DHT22;3764;48.126;11.594;2023-07-20T11:36:39;22.30;97.10
7445;DHT22;3764;48.126;11.594;2023-07-20T11:39:08;22.20;97.50
7445;DHT22;3764;48.126;11.594;2023-07-20T11:41:36;22.30;96.90
7445;DHT22;3764;48.126;11.594;2023-07-20T11:44:05;22.30;96.70
7445;DHT22;3764;48.126;11.594;2023-07-20T11:46:34;22.30;96.70
7445;DHT22;3764;48.126;11.594;2023-07-20T11:49:01;22.30;96.70
7445;DHT22;3764;48.126;11.594;2023-07-20T11:51:29;22.30;97.10
7445;DHT22;3764;48.126;11.594;2023-07-20T11:53:57;22.30;97.20
7445;DHT22;3764;48.126;11.594;2023-07-20T11:56:25;22.40;97.30
7445;DHT22;3764;48.126;11.594;2023-07-20T11:58:55;22.40;96.20
7445;DHT22;3764;48.126;11.594;2023-07-20T12:01:26;22.50;96.40
7445;DHT22;3764;48.126;11.594;2023-07-20T12:03:56;22.50;97.00
7445;DHT22;3764;48.126;11.594;2023-07-20T12:06:24;22.60;96.60
7445;DHT22;3764;48.126;11.594;2023-07-20T12:08:55;22.60;96.20
7445;DHT22;3764;48.126;11.594;2023-07-20T12:11:34;22.60;96.10
7445;DHT22;3764;48.126;11.594;2023-07-20T12:14:04;22.60;96.40
7445;DHT22;3764;48.126;11.594;2023-07-20T12:16:35;22.60;96.90
7445;DHT22;3764;48.126;11.594;2023-07-20T12:19:05;22.60;96.10
7445;DHT22;3764;48.126;11.594;2023-07-20T12:21:34;22.60;96.30
7445;DHT22;3764;48.126;11.594;2023-07-20T12:24:03;22.60;96.40
7445;DHT22;3764;48.126;11.594;2023-07-20T12:26:31;22.60;96.30
7445;DHT22;3764;48.126;11.594;2023-07-20T12:28:59;22.70;96.40
7445;DHT22;3764;48.126;11.594;2023-07-20T12:31:27;22.70;96.30
7445;DHT22;3764;48.126;11.594;2023-07-20T12:33:57;22.80;97.20
7445;DHT22;3764;48.126;11.594;2023-07-20T12:36:25;22.90;96.10
7445;DHT22;3764;48.126;11.594;2023-07-20T12:38:52;23.00;96.10
7445;DHT22;3764;48.126;11.594;2023-07-20T12:41:19;23.00;96.10
7445;DHT22;3764;48.126;11.594;2023-07-20T12:43:46;23.10;96.10
7445;DHT22;3764;48.126;11.594;2023-07-20T12:46:13;23.10;96.20
7445;DHT22;3764;48.126;11.594;2023-07-20T12:48:41;23.10;96.50
7445;DHT22;3764;48.126;11.594;2023-07-20T12:51:11;23.10;96.10
7445;DHT22;3764;48.126;11.594;2023-07-20T12:53:38;23.10;96.10
7445;DHT22;3764;48.126;11.594;2023-07-20T12:56:05;23.20;95.90
7445;DHT22;3764;48.126;11.594;2023-07-20T12:58:32;23.20;95.70
7445;DHT22;3764;48.126;11.594;2023-07-20T13:01:00;23.30;95.90
7445;DHT22;3764;48.126;11.594;2023-07-20T13:03:27;23.20;95.80
7445;DHT22;3764;48.126;11.594;2023-07-20T13:05:54;23.20;95.90
7445;DHT22;3764;48.126;11.594;2023-07-20T13:08:23;23.20;95.90
7445;DHT22;3764;48.126;11.594;2023-07-20T13:10:51;23.20;95.90
7445;DHT22;3764;48.126;11.594;2023-07-20T13:13:18;23.30;96.00
7445;DHT22;3764;48.126;11.594;2023-07-20T13:15:45;23.20;95.50
7445;DHT22;3764;48.126;11.594;2023-07-20T13:18:13;23.30;95.60
7445;DHT22;3764;48.126;11.594;2023-07-20T13:20:40;23.40;95.80
7445;DHT22;3764;48.126;11.594;2023-07-20T13:23:07;23.40;96.10
7445;DHT22;3764;48.126;11.594;2023-07-20T13:25:36;23.40;95.30
7445;DHT22;3764;48.126;11.594;2023-07-20T13:28:04;23.40;95.30
7445;DHT22;3764;48.126;11.594;2023-07-20T13:30:31;23.40;95.00
7445;DHT22;3764;48.126;11.594;2023-07-20T13:32:59;23.40;95.20
7445;DHT22;3764;48.126;11.594;2023-07-20T13:35:26;23.40;94.90
7445;DHT22;3764;48.126;11.594;2023-07-20T13:37:53;23.50;95.10
7445;DHT22;3764;48.126;11.594;2023-07-20T13:40:20;23.40;95.00
7445;DHT22;3764;48.126;11.594;2023-07-20T13:42:50;23.50;96.00
7445;DHT22;3764;48.126;11.594;2023-07-20T13:45:17;23.50;96.00
7445;DHT22;3764;48.126;11.594;2023-07-20T13:47:44;23.50;95.40
7445;DHT22;3764;48.126;11.594;2023-07-20T13:50:11;23.50;95.60
7445;DHT22;3764;48.126;11.594;2023-07-20T13:52:38;23.50;95.80
7445;DHT22;3764;48.126;11.594;2023-07-20T13:55:07;23.60;95.80
7445;DHT22;3764;48.126;11.594;2023-07-20T13:57:34;23.60;95.90
7445;DHT22;3764;48.126;11.594;2023-07-20T14:00:03;23.70;95.50
7445;DHT22;3764;48.126;11.594;2023-07-20T14:02:31;23.70;95.10
7445;DHT22;3764;48.126;11.594;2023-07-20T14:04:59;23.70;94.70
7445;DHT22;3764;48.126;11.594;2023-07-20T14:07:26;23.70;95.10
7445;DHT22;3764;48.126;11.594;2023-07-20T14:09:53;23.70;94.90
7445;DHT22;3764;48.126;11.594;2023-07-20T14:12:20;23.70;95.00
7445;DHT22;3764;48.126;11.594;2023-07-20T14:14:48;23.70;95.00
7445;DHT22;3764;48.126;11.594;2023-07-20T14:17:16;23.80;94.10
7445;DHT22;3764;48.126;11.594;2023-07-20T14:19:43;23.80;94.30
7445;DHT22;3764;48.126;11.594;2023-07-20T14:22:10;23.80;94.40
7445;DHT22;3764;48.126;11.594;2023-07-20T14:24:37;23.80;94.40
7445;DHT22;3764;48.126;11.594;2023-07-20T14:27:05;23.90;94.40
7445;DHT22;3764;48.126;11.594;2023-07-20T14:29:32;23.80;93.90
7445;DHT22;3764;48.126;11.594;2023-07-20T14:32:02;23.90;94.00
7445;DHT22;3764;48.126;11.594;2023-07-20T14:34:33;23.90;93.90
7445;DHT22;3764;48.126;11.594;2023-07-20T14:37:00;23.90;93.70
7445;DHT22;3764;48.126;11.594;2023-07-20T14:39:27;23.90;93.80
7445;DHT22;3764;48.126;11.594;2023-07-20T14:41:54;24.00;94.20
7445;DHT22;3764;48.126;11.594;2023-07-20T14:44:21;24.00;93.70
7445;DHT22;3764;48.126;11.594;2023-07-20T14:46:48;24.00;93.70
7445;DHT22;3764;48.126;11.594;2023-07-20T14:49:18;24.00;94.00
7445;DHT22;3764;48.126;11.594;2023-07-20T14:51:47;24.00;94.50
7445;DHT22;3764;48.126;11.594;2023-07-20T14:54:15;24.10;93.80
7445;DHT22;3764;48.126;11.594;2023-07-20T14:56:49;24.10;94.00
7445;DHT22;3764;48.126;11.594;2023-07-20T14:59:16;24.10;94.70
7445;DHT22;3764;48.126;11.594;2023-07-20T15:01:44;24.20;95.70
7445;DHT22;3764;48.126;11.594;2023-07-20T15:04:12;24.20;94.40
7445;DHT22;3764;48.126;11.594;2023-07-20T15:06:39;24.20;93.90
7445;DHT22;3764;48.126;11.594;2023-07-20T15:09:11;24.20;94.30
7445;DHT22;3764;48.126;11.594;2023-07-20T15:11:38;24.20;95.20
7445;DHT22;3764;48.126;11.594;2023-07-20T15:14:05;24.20;94.20
7445;DHT22;3764;48.126;11.594;2023-07-20T15:16:32;24.30;94.90
7445;DHT22;3764;48.126;11.594;2023-07-20T15:19:01;24.40;96.70
7445;DHT22;3764;48.126;11.594;2023-07-20T15:21:28;24.60;95.00
7445;DHT22;3764;48.126;11.594;2023-07-20T15:23:57;24.60;94.60
7445;DHT22;3764;48.126;11.594;2023-07-20T15:26:26;24.70;94.70
7445;DHT22;3764;48.126;11.594;2023-07-20T15:28:53;24.80;95.20
7445;DHT22;3764;48.126;11.594;2023-07-20T15:31:20;24.80;94.30
7445;DHT22;3764;48.126;11.594;2023-07-20T15:33:49;24.90;95.60
7445;DHT22;3764;48.126;11.594;2023-07-20T15:36:18;25.00;94.70
7445;DHT22;3764;48.126;11.594;2023-07-20T15:38:45;25.10;94.40
7445;DHT22;3764;48.126;11.594;2023-07-20T15:41:12;25.10;94.90
7445;DHT22;3764;48.126;11.594;2023-07-20T15:43:42;25.20;94.90
7445;DHT22;3764;48.126;11.594;2023-07-20T15:46:45;25.20;94.10
7445;DHT22;3764;48.126;11.594;2023-07-20T15:49:13;25.30;93.40
7445;DHT22;3764;48.126;11.594;2023-07-20T15:51:43;25.30;94.70
7445;DHT22;3764;48.126;11.594;2023-07-20T15:54:12;25.30;95.60
7445;DHT22;3764;48.126;11.594;2023-07-20T15:56:40;25.30;94.40
7445;DHT22;3764;48.126;11.594;2023-07-20T15:59:10;25.30;93.80